createdAt,value
2022-09-24T00:05:40.041Z,1.10
2022-09-24T00:15:47.947Z,1.00
2022-09-24T00:26:09.014Z,0.90
2022-09-24T00:36:15.682Z,0.90
2022-09-24T00:46:26.437Z,0.70
2022-09-24T00:56:33.890Z,0.60
2022-09-24T01:06:37.821Z,0.70
2022-09-24T01:16:49.809Z,0.80
2022-09-24T01:27:05.543Z,0.70
2022-09-24T01:37:11.070Z,0.60
2022-09-24T01:47:21.855Z,0.40
2022-09-24T01:57:31.177Z,0.20
2022-09-24T02:07:40.765Z,0.00
2022-09-24T02:17:49.595Z,0.00
2022-09-24T02:27:53.343Z,0.00
2022-09-24T02:38:02.772Z,0.00
2022-09-24T02:48:08.942Z,-0.10
2022-09-24T02:58:13.807Z,-0.20
2022-09-24T03:08:17.471Z,-0.20
2022-09-24T03:18:22.364Z,-0.20
2022-09-24T03:28:25.934Z,-0.10
2022-09-24T03:38:31.603Z,-0.10
2022-09-24T03:48:36.832Z,-0.10
2022-09-24T03:58:47.564Z,0.00
2022-09-24T04:08:51.205Z,0.10
2022-09-24T04:18:57.022Z,0.30
2022-09-24T04:29:00.438Z,0.20
2022-09-24T04:39:05.807Z,0.40
2022-09-24T04:49:10.147Z,0.60
2022-09-24T04:59:14.949Z,0.70
2022-09-24T05:09:18.582Z,0.90
2022-09-24T05:19:23.621Z,1.10
2022-09-24T05:29:27.101Z,1.50
2022-09-24T05:39:34.155Z,2.00
2022-09-24T05:49:38.768Z,2.50
2022-09-24T05:59:43.865Z,3.40
2022-09-24T06:09:47.872Z,4.80
2022-09-24T06:19:54.093Z,6.00
2022-09-24T06:29:57.561Z,7.10
2022-09-24T06:40:03.103Z,8.80
2022-09-24T06:50:08.916Z,10.30
2022-09-24T07:00:15.530Z,11.00
2022-09-24T07:10:19.284Z,11.30
2022-09-24T07:20:24.763Z,12.20
2022-09-24T07:30:28.209Z,14.10
2022-09-24T07:40:34.060Z,15.90
2022-09-24T07:50:42.778Z,16.00
2022-09-24T08:00:47.729Z,16.90
2022-09-24T08:10:52.482Z,17.40
2022-09-24T08:20:57.285Z,19.90
2022-09-24T08:31:01.467Z,19.30
2022-09-24T08:41:33.382Z,19.60
2022-09-24T08:51:42.562Z,18.60
2022-09-24T09:01:52.522Z,18.70
2022-09-24T09:12:02.191Z,21.70
2022-09-24T09:22:14.566Z,21.60
2022-09-24T09:32:39.498Z,22.50
2022-09-24T09:42:45.547Z,23.80
2022-09-24T09:52:49.106Z,26.50
2022-09-24T10:02:54.780Z,24.00
2022-09-24T10:13:09.989Z,22.00
2022-09-24T10:23:22.197Z,24.50
2022-09-24T10:33:26.089Z,23.70
2022-09-24T10:43:31.221Z,23.20
2022-09-24T10:53:51.344Z,22.40
2022-09-24T11:04:25.603Z,20.40
2022-09-24T11:14:59.855Z,20.80
2022-09-24T11:25:34.020Z,20.50
2022-09-24T11:35:58.301Z,21.10
2022-09-24T11:46:24.455Z,22.10
2022-09-24T11:56:34.775Z,24.40
2022-09-24T12:06:45.150Z,29.90
2022-09-24T12:16:54.919Z,32.50
2022-09-24T12:27:04.991Z,33.00
2022-09-24T12:37:16.467Z,29.40
2022-09-24T12:47:24.491Z,30.30
2022-09-24T12:57:32.303Z,31.50
2022-09-24T13:07:40.984Z,26.80
2022-09-24T13:17:45.165Z,23.70
2022-09-24T13:28:03.939Z,25.70
2022-09-24T13:38:19.165Z,23.80
2022-09-24T13:48:36.739Z,28.00
2022-09-24T13:58:41.784Z,34.20
2022-09-24T14:08:48.433Z,34.70
2022-09-24T14:19:03.733Z,28.50
2022-09-24T14:29:15.624Z,27.30
2022-09-24T14:39:19.220Z,25.20
2022-09-24T14:49:26.406Z,22.80
2022-09-24T14:59:32.856Z,20.90
2022-09-24T15:09:37.685Z,19.40
2022-09-24T15:19:43.968Z,17.80
2022-09-24T15:29:48.819Z,16.90
2022-09-24T15:39:54.393Z,16.50
2022-09-24T15:49:59.400Z,16.20
2022-09-24T16:00:03.285Z,15.00
2022-09-24T16:10:11.763Z,13.90
2022-09-24T16:20:15.274Z,13.10
2022-09-24T16:30:20.730Z,12.20
2022-09-24T16:40:24.313Z,11.40
2022-09-24T16:50:29.377Z,11.00
2022-09-24T17:00:32.910Z,10.70
2022-09-24T17:10:42.669Z,10.30
2022-09-24T17:20:46.522Z,9.80
2022-09-24T17:30:57.547Z,9.50
2022-09-24T17:41:05.020Z,9.40
2022-09-24T17:51:13.929Z,9.50
2022-09-24T18:01:19.484Z,9.50
2022-09-24T18:11:27.330Z,9.50
2022-09-24T18:21:31.512Z,9.10
2022-09-24T18:31:36.921Z,8.70
2022-09-24T18:41:41.670Z,8.20
2022-09-24T18:51:47.535Z,7.80
2022-09-24T19:01:51.982Z,7.40
2022-09-24T19:11:56.916Z,7.00
2022-09-24T19:22:00.666Z,6.70
2022-09-24T19:32:05.690Z,6.50
2022-09-24T19:42:09.258Z,6.40
2022-09-24T19:52:14.128Z,6.40
2022-09-24T20:02:17.703Z,6.20
2022-09-24T20:12:22.613Z,6.00
2022-09-24T20:22:27.537Z,5.70
2022-09-24T20:32:32.610Z,5.60
2022-09-24T20:42:38.503Z,5.40
2022-09-24T20:52:43.427Z,5.30
2022-09-24T21:02:47.013Z,5.20
2022-09-24T21:12:51.896Z,5.10
2022-09-24T21:22:55.352Z,5.00
2022-09-24T21:33:00.482Z,5.00
2022-09-24T21:43:05.968Z,5.20
2022-09-24T21:53:10.802Z,5.10
2022-09-24T22:03:14.321Z,4.90
2022-09-24T22:13:19.110Z,4.70
2022-09-24T22:23:23.077Z,4.50
2022-09-24T22:33:49.146Z,4.40
2022-09-24T22:43:53.609Z,4.30
2022-09-24T22:54:00.321Z,4.30
2022-09-24T23:04:04.714Z,4.20
2022-09-24T23:14:14.032Z,4.10
2022-09-24T23:24:19.803Z,4.20
2022-09-24T23:34:24.681Z,4.30
2022-09-24T23:44:28.138Z,4.30
2022-09-24T23:54:32.946Z,4.10
